Time,TemperatureF,DewpointF,PressureIn,WindDirection,WindDirectionDegrees,WindSpeedMPH,WindSpeedGustMPH,Humidity,HourlyPrecipIn,Conditions,Clouds,dailyrainin,SoftwareType,DateUTC
2013-11-19 00:00:00,43.9,27.0,29.70,SW,225,4.0,16.0,51,0.00,,FEW055,0.00,VWS V14.01,2013-11-19 05:00:00,
2013-11-19 00:05:00,43.9,27.0,29.70,SW,225,1.0,12.0,51,0.00,,FEW055,0.00,VWS V14.01,2013-11-19 05:05:00,
2013-11-19 00:10:00,43.8,27.3,29.70,SW,225,1.0,16.0,52,0.00,,FEW055,0.00,VWS V14.01,2013-11-19 05:10:00,
2013-11-19 00:15:00,43.6,27.1,29.71,SW,225,1.0,10.0,52,0.00,,FEW055,0.00,VWS V14.01,2013-11-19 05:15:00,
2013-11-19 00:20:00,43.4,27.0,29.71,SW,225,1.0,17.0,52,0.00,,FEW055,0.00,VWS V14.01,2013-11-19 05:20:00,
2013-11-19 00:25:00,43.4,27.4,29.71,SW,225,2.0,20.0,53,0.00,,FEW055,0.00,VWS V14.01,2013-11-19 05:25:00,
2013-11-19 00:30:00,43.3,27.3,29.71,SW,225,2.0,12.0,53,0.00,,FEW055,0.00,VWS V14.01,2013-11-19 05:30:00,
2013-11-19 00:35:00,43.2,27.7,29.71,SW,225,1.0,10.0,54,0.00,,FEW055,0.00,VWS V14.01,2013-11-19 05:35:00,
2013-11-19 00:40:00,43.0,28.0,29.71,SW,225,0.0,7.0,55,0.00,,FEW055,0.00,VWS V14.01,2013-11-19 05:40:00,
2013-11-19 00:45:00,42.8,27.8,29.71,SW,225,1.0,9.0,55,0.00,,FEW055,0.00,VWS V14.01,2013-11-19 05:45:00,
2013-11-19 00:50:00,42.6,27.6,29.71,SW,225,2.0,17.0,55,0.00,,FEW055,0.00,VWS V14.01,2013-11-19 05:50:00,
2013-11-19 00:55:00,42.5,27.9,29.71,SW,225,0.0,0.0,56,0.00,,FEW055,0.00,VWS V14.01,2013-11-19 05:55:00,
2013-11-19 01:00:00,42.3,27.7,29.72,SW,225,1.0,16.0,56,0.00,,FEW055,0.00,VWS V14.01,2013-11-19 06:00:00,
2013-11-19 01:05:00,42.2,27.6,29.72,SW,225,0.0,0.0,56,0.00,,FEW055,0.00,VWS V14.01,2013-11-19 06:05:00,
2013-11-19 01:10:00,42.2,27.6,29.72,SW,225,0.0,3.0,56,0.00,,FEW055,0.00,VWS V14.01,2013-11-19 06:10:00,
2013-11-19 01:15:00,42.2,28.1,29.72,SW,225,7.0,22.0,57,0.00,,FEW055,0.00,VWS V14.01,2013-11-19 06:15:00,
2013-11-19 01:20:00,42.5,28.4,29.73,SW,225,9.0,26.0,57,0.00,,FEW055,0.00,VWS V14.01,2013-11-19 06:20:00,
2013-11-19 01:25:00,42.6,28.9,29.73,SW,225,7.0,24.0,58,0.00,,FEW055,0.00,VWS V14.01,2013-11-19 06:25:00,
2013-11-19 01:30:00,42.5,28.4,29.73,SW,225,9.0,27.0,57,0.00,,FEW055,0.00,VWS V14.01,2013-11-19 06:30:00,
2013-11-19 01:35:00,42.6,28.0,29.73,SW,225,8.0,26.0,56,0.00,,FEW055,0.00,VWS V14.01,2013-11-19 06:35:00,
2013-11-19 01:40:00,42.5,27.9,29.73,SW,225,8.0,32.0,56,0.00,,FEW055,0.00,VWS V14.01,2013-11-19 06:40:00,
2013-11-19 01:45:00,42.1,27.5,29.74,SW,225,8.0,22.0,56,0.00,,FEW055,0.00,VWS V14.01,2013-11-19 06:45:00,
2013-11-19 01:50:00,41.8,27.7,29.74,SW,225,5.0,25.0,57,0.00,,FEW055,0.00,VWS V14.01,2013-11-19 06:50:00,
2013-11-19 01:55:00,41.6,27.5,29.74,SW,225,6.0,21.0,57,0.00,,FEW055,0.00,VWS V14.01,2013-11-19 06:55:00,
2013-11-19 02:00:00,41.4,27.3,29.74,SW,225,1.0,10.0,57,0.00,,FEW055,0.00,VWS V14.01,2013-11-19 07:00:00,
2013-11-19 02:05:00,41.1,27.5,29.75,SW,225,3.0,12.0,58,0.00,,FEW055,0.00,VWS V14.01,2013-11-19 07:05:00,
2013-11-19 02:10:00,40.9,27.3,29.75,SW,225,4.0,17.0,58,0.00,,FEW055,0.00,VWS V14.01,2013-11-19 07:10:00,
2013-11-19 02:15:00,41.0,27.4,29.75,SW,225,6.0,21.0,58,0.00,,FEW055,0.00,VWS V14.01,2013-11-19 07:15:00,
2013-11-19 02:20:00,41.0,27.0,29.75,SW,225,4.0,14.0,57,0.00,,FEW055,0.00,VWS V14.01,2013-11-19 07:20:00,
2013-11-19 02:25:00,41.0,26.5,29.75,SW,225,3.0,15.0,56,0.00,,FEW055,0.00,VWS V14.01,2013-11-19 07:25:00,
2013-11-19 02:30:00,41.0,25.6,29.75,SW,225,7.0,27.0,54,0.00,,FEW055,0.00,VWS V14.01,2013-11-19 07:30:00,
2013-11-19 02:35:00,41.0,24.7,29.75,SW,225,10.0,28.0,52,0.00,,FEW055,0.00,VWS V14.01,2013-11-19 07:35:00,
2013-11-19 02:40:00,40.8,24.1,29.75,SW,225,12.0,41.0,51,0.00,,FEW055,0.00,VWS V14.01,2013-11-19 07:40:00,
2013-11-19 02:45:00,40.4,23.7,29.75,NNW,338,8.0,22.0,51,0.00,,FEW055,0.00,VWS V14.01,2013-11-19 07:45:00,
2013-11-19 02:50:00,39.9,23.7,29.75,WSW,248,10.0,29.0,52,0.00,,FEW055,0.00,VWS V14.01,2013-11-19 07:50:00,
2013-11-19 02:55:00,39.6,23.4,29.75,WSW,248,9.0,40.0,52,0.00,,FEW055,0.00,VWS V14.01,2013-11-19 07:55:00,
2013-11-19 03:00:00,39.3,23.2,29.76,WSW,248,6.0,22.0,52,0.00,,FEW055,0.00,VWS V14.01,2013-11-19 08:00:00,
2013-11-19 03:05:00,39.2,23.1,29.77,WSW,248,8.0,26.0,52,0.00,,FEW055,0.00,VWS V14.01,2013-11-19 08:05:00,
2013-11-19 03:10:00,38.9,23.2,29.77,WSW,248,3.0,20.0,53,0.00,,FEW055,0.00,VWS V14.01,2013-11-19 08:10:00,
2013-11-19 03:15:00,38.6,23.4,29.77,WSW,248,6.0,23.0,54,0.00,,FEW055,0.00,VWS V14.01,2013-11-19 08:15:00,
2013-11-19 03:29:00,38.6,23.4,29.77,WSW,248,6.0,23.0,54,0.00,,FEW055,0.00,VWS V14.01,2013-11-19 08:29:00,
2013-11-19 03:34:00,37.9,23.6,29.78,WSW,245,0.0,5.0,56,0.00,,SCT065,0.00,VWS V14.01,2013-11-19 08:34:00,
2013-11-19 03:39:00,37.6,23.3,29.78,WSW,245,0.0,0.0,56,0.00,,SCT065,0.00,VWS V14.01,2013-11-19 08:39:00,
2013-11-19 03:44:00,37.4,23.1,29.78,WSW,245,0.0,15.0,56,0.00,,SCT065,0.00,VWS V14.01,2013-11-19 08:44:00,
2013-11-19 03:49:00,37.3,23.5,29.78,WSW,245,5.0,15.0,57,0.00,,SCT065,0.00,VWS V14.01,2013-11-19 08:49:00,
2013-11-19 03:54:00,37.3,23.5,29.78,WSW,245,0.0,3.0,57,0.00,,SCT065,0.00,VWS V14.01,2013-11-19 08:54:00,
2013-11-19 03:59:00,37.3,23.1,29.79,WSW,245,0.0,0.0,56,0.00,,SCT065,0.00,VWS V14.01,2013-11-19 08:59:00,
2013-11-19 04:04:00,37.2,23.4,29.79,WSW,245,0.0,10.0,57,0.00,,FEW065,0.00,VWS V14.01,2013-11-19 09:04:00,
2013-11-19 04:09:00,37.3,23.1,29.79,WSW,245,0.0,9.0,56,0.00,,FEW065,0.00,VWS V14.01,2013-11-19 09:09:00,
2013-11-19 04:14:00,37.2,23.0,29.80,WSW,245,0.0,0.0,56,0.00,,FEW065,0.00,VWS V14.01,2013-11-19 09:14:00,
2013-11-19 04:19:00,37.0,23.2,29.80,WSW,245,0.0,0.0,57,0.00,,FEW065,0.00,VWS V14.01,2013-11-19 09:19:00,
2013-11-19 04:24:00,36.7,22.9,29.80,WSW,245,0.0,0.0,57,0.00,,FEW065,0.00,VWS V14.01,2013-11-19 09:24:00,
2013-11-19 04:29:00,36.6,22.8,29.80,WSW,245,0.0,7.0,57,0.00,,FEW065,0.00,VWS V14.01,2013-11-19 09:29:00,
2013-11-19 04:34:00,36.7,22.5,29.81,WSW,245,0.0,12.0,56,0.00,,FEW065,0.00,VWS V14.01,2013-11-19 09:34:00,
2013-11-19 04:39:00,36.7,22.5,29.81,WSW,245,0.0,2.0,56,0.00,,FEW065,0.00,VWS V14.01,2013-11-19 09:39:00,
2013-11-19 04:44:00,36.4,22.6,29.81,WSW,245,0.0,8.0,57,0.00,,FEW065,0.00,VWS V14.01,2013-11-19 09:44:00,
2013-11-19 04:49:00,36.3,22.1,29.81,WSW,245,0.0,0.0,56,0.00,,FEW065,0.00,VWS V14.01,2013-11-19 09:49:00,
2013-11-19 04:54:00,36.2,22.0,29.81,WSW,245,0.0,0.0,56,0.00,,FEW065,0.00,VWS V14.01,2013-11-19 09:54:00,
2013-11-19 04:59:00,36.2,22.5,29.81,WSW,245,0.0,8.0,57,0.00,,FEW065,0.00,VWS V14.01,2013-11-19 09:59:00,
2013-11-19 05:04:00,35.9,22.6,29.82,WSW,245,0.0,1.0,58,0.00,,BKN055,0.00,VWS V14.01,2013-11-19 10:04:00,
2013-11-19 05:09:00,35.7,22.4,29.81,WSW,245,0.0,2.0,58,0.00,,BKN055,0.00,VWS V14.01,2013-11-19 10:09:00,
2013-11-19 05:14:00,35.7,22.0,29.81,WSW,245,9.0,9.0,57,0.00,,BKN055,0.00,VWS V14.01,2013-11-19 10:14:00,
2013-11-19 05:19:00,35.7,22.0,29.82,WSW,245,8.0,12.0,57,0.00,,BKN055,0.00,VWS V14.01,2013-11-19 10:19:00,
2013-11-19 05:24:00,35.9,21.8,29.82,WSW,245,0.0,0.0,56,0.00,,BKN055,0.00,VWS V14.01,2013-11-19 10:24:00,
2013-11-19 05:30:00,35.7,22.0,29.82,WSW,245,13.0,13.0,57,0.00,,BKN055,0.00,VWS V14.01,2013-11-19 10:30:00,
2013-11-19 05:35:00,35.7,21.6,29.82,WSW,245,2.0,8.0,56,0.00,,BKN055,0.00,VWS V14.01,2013-11-19 10:35:00,
2013-11-19 05:40:00,35.6,21.9,29.82,WSW,245,2.0,4.0,57,0.00,,BKN055,0.00,VWS V14.01,2013-11-19 10:40:00,
2013-11-19 05:45:00,35.4,21.7,29.83,WSW,245,0.0,2.0,57,0.00,,BKN055,0.00,VWS V14.01,2013-11-19 10:45:00,
2013-11-19 05:50:00,35.4,21.7,29.83,WSW,245,0.0,5.0,57,0.00,,BKN055,0.00,VWS V14.01,2013-11-19 10:50:00,
2013-11-19 05:55:00,35.3,22.0,29.83,WSW,245,0.0,0.0,58,0.00,,BKN055,0.00,VWS V14.01,2013-11-19 10:55:00,
2013-11-19 06:00:00,35.2,21.9,29.84,WSW,245,0.0,1.0,58,0.00,,BKN055,0.00,VWS V14.01,2013-11-19 11:00:00,
2013-11-19 06:05:00,35.2,21.9,29.84,WSW,245,0.0,0.0,58,0.00,,OVC050,0.00,VWS V14.01,2013-11-19 11:05:00,
2013-11-19 06:10:00,35.2,21.9,29.84,WSW,245,0.0,0.0,58,0.00,,OVC050,0.00,VWS V14.01,2013-11-19 11:10:00,
2013-11-19 06:15:00,35.2,21.9,29.85,WSW,245,0.0,0.0,58,0.00,,OVC050,0.00,VWS V14.01,2013-11-19 11:15:00,
2013-11-19 06:20:00,34.9,22.0,29.85,WSW,245,0.0,0.0,59,0.00,,OVC050,0.00,VWS V14.01,2013-11-19 11:20:00,
2013-11-19 06:25:00,34.9,22.0,29.85,WSW,245,1.0,7.0,59,0.00,,OVC050,0.00,VWS V14.01,2013-11-19 11:25:00,
2013-11-19 06:30:00,35.0,22.1,29.86,WSW,245,0.0,0.0,59,0.00,,OVC050,0.00,VWS V14.01,2013-11-19 11:30:00,
2013-11-19 06:35:00,35.0,22.5,29.86,WSW,245,0.0,0.0,60,0.00,,OVC050,0.00,VWS V14.01,2013-11-19 11:35:00,
2013-11-19 06:40:00,35.4,22.5,29.86,WSW,245,0.0,3.0,59,0.00,,OVC050,0.00,VWS V14.01,2013-11-19 11:40:00,
2013-11-19 06:45:00,36.0,23.1,29.86,WSW,245,13.0,15.0,59,0.00,,OVC050,0.00,VWS V14.01,2013-11-19 11:45:00,
2013-11-19 06:50:00,36.3,23.0,29.86,WSW,246,2.0,14.0,58,0.00,,OVC050,0.00,VWS V14.01,2013-11-19 11:50:00,
2013-11-19 06:55:00,36.7,23.3,29.87,WSW,246,0.0,29.0,58,0.00,,OVC050,0.00,VWS V14.01,2013-11-19 11:55:00,
2013-11-19 07:00:00,36.9,23.9,29.87,WSW,246,22.0,22.0,59,0.00,,OVC050,0.00,VWS V14.01,2013-11-19 12:00:00,
2013-11-19 07:05:00,37.0,24.4,29.87,WSW,245,3.0,21.0,60,0.00,,BKN046,0.00,VWS V14.01,2013-11-19 12:05:00,
2013-11-19 07:10:00,37.0,24.4,29.88,WSW,245,4.0,16.0,60,0.00,,BKN046,0.00,VWS V14.01,2013-11-19 12:10:00,
2013-11-19 07:15:00,36.9,24.7,29.88,WSW,246,11.0,22.0,61,0.00,,BKN046,0.00,VWS V14.01,2013-11-19 12:15:00,
2013-11-19 07:20:00,36.9,25.1,29.89,WSW,245,14.0,14.0,62,0.00,,BKN046,0.00,VWS V14.01,2013-11-19 12:20:00,
2013-11-19 07:25:00,36.7,25.3,29.89,WSW,245,8.0,15.0,63,0.00,,BKN046,0.00,VWS V14.01,2013-11-19 12:25:00,
2013-11-19 07:30:00,36.9,25.5,29.90,WSW,246,0.0,10.0,63,0.00,,BKN046,0.00,VWS V14.01,2013-11-19 12:30:00,
2013-11-19 07:36:00,36.9,25.5,29.90,WSW,245,0.0,0.0,63,0.00,,BKN046,0.00,VWS V14.01,2013-11-19 12:36:00,
2013-11-19 07:41:00,37.0,26.0,29.90,WSW,245,0.0,11.0,64,0.00,,BKN046,0.00,VWS V14.01,2013-11-19 12:41:00,
2013-11-19 07:46:00,36.9,26.2,29.91,WSW,246,5.0,20.0,65,0.00,,BKN046,0.00,VWS V14.01,2013-11-19 12:46:00,
2013-11-19 07:51:00,36.7,26.4,29.91,WSW,246,9.0,22.0,66,0.00,,BKN046,0.00,VWS V14.01,2013-11-19 12:51:00,
2013-11-19 07:56:00,36.6,26.3,29.91,WSW,246,0.0,0.0,66,0.00,,BKN046,0.00,VWS V14.01,2013-11-19 12:56:00,
2013-11-19 08:01:00,36.3,26.4,29.91,WSW,245,0.0,20.0,67,0.00,,BKN046,0.00,VWS V14.01,2013-11-19 13:01:00,
2013-11-19 08:06:00,36.3,26.4,29.91,WSW,246,8.0,20.0,67,0.00,,BKN250,0.00,VWS V14.01,2013-11-19 13:06:00,
2013-11-19 08:11:00,36.3,26.0,29.91,WSW,246,0.0,22.0,66,0.00,,BKN250,0.00,VWS V14.01,2013-11-19 13:11:00,
2013-11-19 08:16:00,36.2,26.0,29.91,WSW,246,7.0,28.0,66,0.00,,BKN250,0.00,VWS V14.01,2013-11-19 13:16:00,
2013-11-19 08:21:00,36.2,26.0,29.92,WSW,245,9.0,11.0,66,0.00,,BKN250,0.00,VWS V14.01,2013-11-19 13:21:00,
2013-11-19 08:26:00,37.0,26.3,29.92,WSW,246,5.0,13.0,65,0.00,,BKN250,0.00,VWS V14.01,2013-11-19 13:26:00,
2013-11-19 08:31:00,37.7,26.3,29.92,WSW,246,18.0,21.0,63,0.00,,BKN250,0.00,VWS V14.01,2013-11-19 13:31:00,
2013-11-19 08:36:00,38.5,26.2,29.92,WSW,245,1.0,16.0,61,0.00,,BKN250,0.00,VWS V14.01,2013-11-19 13:36:00,
2013-11-19 08:41:00,38.7,26.0,29.92,WSW,246,10.0,13.0,60,0.00,,BKN250,0.00,VWS V14.01,2013-11-19 13:41:00,
2013-11-19 08:46:00,39.0,26.3,29.93,WSW,246,0.0,11.0,60,0.00,,BKN250,0.00,VWS V14.01,2013-11-19 13:46:00,
2013-11-19 08:51:00,39.5,26.0,29.93,WSW,246,19.0,19.0,58,0.00,,BKN250,0.00,VWS V14.01,2013-11-19 13:51:00,
2013-11-19 08:56:00,39.3,25.8,29.94,WSW,246,0.0,12.0,58,0.00,,BKN250,0.00,VWS V14.01,2013-11-19 13:56:00,
2013-11-19 09:01:00,39.3,25.8,29.94,WSW,246,18.0,20.0,58,0.00,,BKN250,0.00,VWS V14.01,2013-11-19 14:01:00,
2013-11-19 09:06:00,39.9,26.3,29.94,NW,314,15.0,38.0,58,0.00,,SCT250,0.00,VWS V14.01,2013-11-19 14:06:00,
2013-11-19 09:11:00,39.7,25.7,29.95,WSW,241,19.0,19.0,57,0.00,,SCT250,0.00,VWS V14.01,2013-11-19 14:11:00,
2013-11-19 09:16:00,40.0,26.0,29.95,WSW,241,0.0,22.0,57,0.00,,SCT250,0.00,VWS V14.01,2013-11-19 14:16:00,
2013-11-19 09:21:00,40.3,25.4,29.95,WSW,241,0.0,17.0,55,0.00,,SCT250,0.00,VWS V14.01,2013-11-19 14:21:00,
2013-11-19 09:26:00,40.3,25.4,29.95,WSW,241,11.0,17.0,55,0.00,,SCT250,0.00,VWS V14.01,2013-11-19 14:26:00,
2013-11-19 09:28:00,40.3,25.4,29.95,WSW,241,14.0,14.0,55,0.00,,SCT250,0.00,VWS V14.01,2013-11-19 14:28:00,
2013-11-19 09:33:00,40.0,26.0,29.95,WSW,241,4.0,16.0,57,0.00,,SCT250,0.00,VWS V14.01,2013-11-19 14:33:00,
2013-11-19 09:38:00,40.3,26.3,29.95,WSW,241,6.0,12.0,57,0.00,,SCT250,0.00,VWS V14.01,2013-11-19 14:38:00,
2013-11-19 09:43:00,40.5,25.6,29.95,WSW,241,3.0,9.0,55,0.00,,SCT250,0.00,VWS V14.01,2013-11-19 14:43:00,
2013-11-19 09:48:00,40.7,25.8,29.95,WSW,241,0.0,15.0,55,0.00,,SCT250,0.00,VWS V14.01,2013-11-19 14:48:00,
2013-11-19 11:47:00,42.9,24.1,29.99,SSE,150,23.0,23.0,47,0.00,,SCT250,0.00,VWS V14.01,2013-11-19 16:47:00,
2013-11-19 11:52:00,42.9,23.6,29.99,WSW,243,0.0,14.0,46,0.00,,SCT049,0.00,VWS V14.01,2013-11-19 16:52:00,
2013-11-19 11:57:00,43.3,23.9,29.99,WSW,243,19.0,27.0,46,0.00,,SCT049,0.00,VWS V14.01,2013-11-19 16:57:00,
2013-11-19 12:02:00,43.2,24.9,30.00,WSW,243,19.0,19.0,48,0.00,,SCT049,0.00,VWS V14.01,2013-11-19 17:02:00,
2013-11-19 12:07:00,43.2,24.4,30.00,SSE,151,0.0,12.0,47,0.00,,FEW049,0.00,VWS V14.01,2013-11-19 17:07:00,
2013-11-19 12:12:00,44.0,25.1,30.00,SSE,151,9.0,14.0,47,0.00,,FEW049,0.00,VWS V14.01,2013-11-19 17:12:00,
2013-11-19 12:17:00,44.3,23.8,30.00,NNW,343,11.0,21.0,44,0.00,,FEW049,0.00,VWS V14.01,2013-11-19 17:17:00,
2013-11-19 12:22:00,43.7,23.2,30.00,NNW,341,11.0,29.0,44,0.00,,FEW049,0.00,VWS V14.01,2013-11-19 17:22:00,
2013-11-19 12:27:00,43.3,23.4,30.00,SSE,155,23.0,23.0,45,0.00,,FEW049,0.00,VWS V14.01,2013-11-19 17:27:00,
2013-11-19 12:32:00,42.3,23.0,30.00,WNW,301,4.0,27.0,46,0.00,,FEW049,0.00,VWS V14.01,2013-11-19 17:32:00,
2013-11-19 12:35:00,42.2,23.4,30.00,NW,317,14.0,29.0,47,0.00,,FEW049,0.00,VWS V14.01,2013-11-19 17:35:00,
2013-11-19 12:40:00,41.7,23.5,30.00,SW,225,6.0,18.0,48,0.00,,FEW049,0.00,VWS V14.01,2013-11-19 17:40:00,
2013-11-19 12:45:00,42.0,23.2,30.00,SW,225,0.0,16.0,47,0.00,,FEW049,0.00,VWS V14.01,2013-11-19 17:45:00,
2013-11-19 12:50:00,41.6,22.4,30.01,SW,225,18.0,19.0,46,0.00,,FEW049,0.00,VWS V14.01,2013-11-19 17:50:00,
2013-11-19 12:55:00,41.0,22.3,30.01,SW,235,10.0,22.0,47,0.00,,FEW049,0.00,VWS V14.01,2013-11-19 17:55:00,
2013-11-19 13:00:00,40.9,22.2,30.01,SW,235,0.0,17.0,47,0.00,,FEW049,0.00,VWS V14.01,2013-11-19 18:00:00,
2013-11-19 13:05:00,40.9,22.2,30.01,WSW,240,6.0,27.0,47,0.00,,FEW050,0.00,VWS V14.01,2013-11-19 18:05:00,
2013-11-19 13:10:00,40.6,22.0,30.02,WSW,246,12.0,32.0,47,0.00,,FEW050,0.00,VWS V14.01,2013-11-19 18:10:00,
2013-11-19 13:15:00,40.3,22.2,30.02,WNW,290,4.0,24.0,48,0.00,,FEW050,0.00,VWS V14.01,2013-11-19 18:15:00,
2013-11-19 13:21:00,40.2,22.1,30.01,WSW,240,11.0,18.0,48,0.00,,FEW050,0.00,VWS V14.01,2013-11-19 18:21:00,
2013-11-19 13:26:00,40.2,22.6,30.02,WSW,240,0.0,0.0,49,0.00,,FEW050,0.00,VWS V14.01,2013-11-19 18:26:00,
2013-11-19 13:31:00,40.5,23.3,30.02,WSW,240,1.0,13.0,50,0.00,,FEW050,0.00,VWS V14.01,2013-11-19 18:31:00,
2013-11-19 13:36:00,40.5,22.4,30.02,WSW,248,3.0,20.0,48,0.00,,FEW050,0.00,VWS V14.01,2013-11-19 18:36:00,
2013-11-19 13:41:00,40.6,22.5,30.02,WSW,244,0.0,0.0,48,0.00,,FEW050,0.00,VWS V14.01,2013-11-19 18:41:00,
2013-11-19 13:46:00,41.0,23.3,30.02,WSW,244,13.0,24.0,49,0.00,,FEW050,0.00,VWS V14.01,2013-11-19 18:46:00,
2013-11-19 13:51:00,41.0,22.8,30.03,WSW,244,0.0,10.0,48,0.00,,FEW050,0.00,VWS V14.01,2013-11-19 18:51:00,
2013-11-19 13:56:00,41.5,22.8,30.03,WSW,244,0.0,8.0,47,0.00,,FEW050,0.00,VWS V14.01,2013-11-19 18:56:00,
2013-11-19 14:01:00,42.2,23.4,30.03,WSW,244,0.0,0.0,47,0.00,,FEW050,0.00,VWS V14.01,2013-11-19 19:01:00,
2013-11-19 14:05:00,42.2,22.9,30.03,NW,311,17.0,34.0,46,0.00,,FEW050,0.00,VWS V14.01,2013-11-19 19:05:00,
2013-11-19 14:10:00,42.0,22.2,30.04,WSW,252,11.0,15.0,45,0.00,,FEW050,0.00,VWS V14.01,2013-11-19 19:10:00,
2013-11-19 14:15:00,41.3,22.1,30.04,WSW,250,7.0,29.0,46,0.00,,FEW050,0.00,VWS V14.01,2013-11-19 19:15:00,
2013-11-19 14:20:00,41.3,23.1,30.04,WSW,250,2.0,2.0,48,0.00,,FEW050,0.00,VWS V14.01,2013-11-19 19:20:00,
2013-11-19 14:25:00,41.5,22.8,30.04,WSW,250,0.0,25.0,47,0.00,,FEW050,0.00,VWS V14.01,2013-11-19 19:25:00,
2013-11-19 14:30:00,41.2,22.5,30.05,WSW,253,19.0,21.0,47,0.00,,FEW050,0.00,VWS V14.01,2013-11-19 19:30:00,
2013-11-19 14:35:00,40.9,22.7,30.05,NNW,342,15.0,26.0,48,0.00,,FEW050,0.00,VWS V14.01,2013-11-19 19:35:00,
2013-11-19 14:40:00,40.5,21.9,30.04,WSW,249,0.0,21.0,47,0.00,,FEW050,0.00,VWS V14.01,2013-11-19 19:40:00,
2013-11-19 14:45:00,40.5,22.4,30.05,SSE,154,7.0,25.0,48,0.00,,FEW050,0.00,VWS V14.01,2013-11-19 19:45:00,
2013-11-19 14:50:00,40.6,23.0,30.05,NW,323,19.0,34.0,49,0.00,,FEW050,0.00,VWS V14.01,2013-11-19 19:50:00,
2013-11-19 14:55:00,40.7,22.5,30.06,NW,315,16.0,25.0,48,0.00,,FEW050,0.00,VWS V14.01,2013-11-19 19:55:00,
2013-11-19 15:00:00,40.5,22.9,30.07,NW,317,0.0,28.0,49,0.00,,FEW050,0.00,VWS V14.01,2013-11-19 20:00:00,
2013-11-19 15:05:00,40.0,22.4,30.07,West,269,0.0,30.0,49,0.00,,FEW055,0.00,VWS V14.01,2013-11-19 20:05:00,
2013-11-19 15:10:00,39.9,22.8,30.07,NW,310,0.0,9.0,50,0.00,,FEW055,0.00,VWS V14.01,2013-11-19 20:10:00,
2013-11-19 15:15:00,39.6,22.5,30.08,WSW,247,0.0,29.0,50,0.00,,FEW055,0.00,VWS V14.01,2013-11-19 20:15:00,
2013-11-19 15:20:00,39.5,22.9,30.08,WSW,247,0.0,18.0,51,0.00,,FEW055,0.00,VWS V14.01,2013-11-19 20:20:00,
2013-11-19 15:25:00,39.3,23.2,30.08,WSW,247,0.0,19.0,52,0.00,,FEW055,0.00,VWS V14.01,2013-11-19 20:25:00,
2013-11-19 15:30:00,39.0,22.4,30.08,WSW,247,16.0,26.0,51,0.00,,FEW055,0.00,VWS V14.01,2013-11-19 20:30:00,
2013-11-19 15:35:00,38.7,22.6,30.08,WSW,247,0.0,1.0,52,0.00,,FEW055,0.00,VWS V14.01,2013-11-19 20:35:00,
2013-11-19 15:40:00,38.3,22.7,30.08,WSW,247,9.0,22.0,53,0.00,,FEW055,0.00,VWS V14.01,2013-11-19 20:40:00,
2013-11-19 15:45:00,37.9,22.8,30.09,WSW,247,0.0,0.0,54,0.00,,FEW055,0.00,VWS V14.01,2013-11-19 20:45:00,
2013-11-19 15:50:00,37.9,22.8,30.09,WSW,247,2.0,13.0,54,0.00,,FEW055,0.00,VWS V14.01,2013-11-19 20:50:00,
2013-11-19 15:55:00,37.6,22.9,30.09,WSW,247,0.0,3.0,55,0.00,,FEW055,0.00,VWS V14.01,2013-11-19 20:55:00,
2013-11-19 16:00:00,37.2,22.5,30.09,WSW,247,0.0,20.0,55,0.00,,FEW055,0.00,VWS V14.01,2013-11-19 21:00:00,
2013-11-19 16:05:00,36.7,22.1,30.10,WSW,247,0.0,10.0,55,0.00,,FEW055,0.00,VWS V14.01,2013-11-19 21:05:00,
2013-11-19 16:10:00,36.3,22.1,30.10,WSW,247,5.0,19.0,56,0.00,,FEW055,0.00,VWS V14.01,2013-11-19 21:10:00,
2013-11-19 16:15:00,36.0,22.3,30.10,WSW,247,0.0,2.0,57,0.00,,FEW055,0.00,VWS V14.01,2013-11-19 21:15:00,
2013-11-19 16:20:00,35.7,22.0,30.10,WSW,247,5.0,27.0,57,0.00,,FEW055,0.00,VWS V14.01,2013-11-19 21:20:00,
2013-11-19 16:25:00,35.4,22.1,30.11,WSW,247,0.0,0.0,58,0.00,,FEW055,0.00,VWS V14.01,2013-11-19 21:25:00,
2013-11-19 16:30:00,35.2,21.9,30.11,WSW,247,11.0,27.0,58,0.00,,FEW055,0.00,VWS V14.01,2013-11-19 21:30:00,
2013-11-19 16:35:00,35.0,21.7,30.11,WSW,247,0.0,5.0,58,0.00,,FEW055,0.00,VWS V14.01,2013-11-19 21:35:00,
2013-11-19 16:40:00,34.9,22.0,30.11,WSW,247,11.0,18.0,59,0.00,,FEW055,0.00,VWS V14.01,2013-11-19 21:40:00,
2013-11-19 16:45:00,34.7,21.9,30.11,WSW,247,0.0,13.0,59,0.00,,FEW055,0.00,VWS V14.01,2013-11-19 21:45:00,
2013-11-19 16:50:00,34.4,22.0,30.12,WSW,247,9.0,12.0,60,0.00,,FEW055,0.00,VWS V14.01,2013-11-19 21:50:00,
2013-11-19 16:55:00,34.1,21.7,30.12,WSW,247,7.0,24.0,60,0.00,,FEW055,0.00,VWS V14.01,2013-11-19 21:55:00,
2013-11-19 17:00:00,34.1,21.7,30.13,WSW,247,19.0,22.0,60,0.00,,FEW055,0.00,VWS V14.01,2013-11-19 22:00:00,
2013-11-19 17:05:00,34.1,21.7,30.14,WSW,247,5.0,15.0,60,0.00,,FEW060,0.00,VWS V14.01,2013-11-19 22:05:00,
2013-11-19 17:10:00,34.0,21.6,30.14,WSW,247,0.0,12.0,60,0.00,,FEW060,0.00,VWS V14.01,2013-11-19 22:10:00,
2013-11-19 17:15:00,33.8,21.8,30.14,WSW,247,15.0,16.0,61,0.00,,FEW060,0.00,VWS V14.01,2013-11-19 22:15:00,
2013-11-19 17:20:00,33.7,21.7,30.15,WSW,247,7.0,19.0,61,0.00,,FEW060,0.00,VWS V14.01,2013-11-19 22:20:00,
2013-11-19 17:25:00,33.7,21.7,30.15,WSW,247,0.0,0.0,61,0.00,,FEW060,0.00,VWS V14.01,2013-11-19 22:25:00,
2013-11-19 17:30:00,33.4,21.4,30.15,WSW,247,0.0,0.0,61,0.00,,FEW060,0.00,VWS V14.01,2013-11-19 22:30:00,
2013-11-19 17:35:00,33.1,21.5,30.16,WSW,247,0.0,8.0,62,0.00,,FEW060,0.00,VWS V14.01,2013-11-19 22:35:00,
2013-11-19 17:40:00,32.9,21.3,30.16,WSW,247,0.0,0.0,62,0.00,,FEW060,0.00,VWS V14.01,2013-11-19 22:40:00,
2013-11-19 17:45:00,32.8,21.2,30.16,WSW,247,0.0,1.0,62,0.00,,FEW060,0.00,VWS V14.01,2013-11-19 22:45:00,
2013-11-19 17:50:00,32.5,21.3,30.17,WSW,247,0.0,17.0,63,0.00,,FEW060,0.00,VWS V14.01,2013-11-19 22:50:00,
2013-11-19 17:55:00,32.3,21.1,30.18,WSW,247,0.0,0.0,63,0.00,,FEW060,0.00,VWS V14.01,2013-11-19 22:55:00,
2013-11-19 18:00:00,32.2,21.4,30.18,WSW,247,0.0,0.0,64,0.00,,FEW060,0.00,VWS V14.01,2013-11-19 23:00:00,
2013-11-19 18:05:00,32.1,21.3,30.18,WSW,247,0.0,0.0,64,0.00,,FEW055,0.00,VWS V14.01,2013-11-19 23:05:00,
2013-11-19 18:10:00,32.1,21.3,30.18,WSW,247,8.0,19.0,64,0.00,,FEW055,0.00,VWS V14.01,2013-11-19 23:10:00,
2013-11-19 18:15:00,32.1,21.3,30.18,WSW,247,11.0,11.0,64,0.00,,FEW055,0.00,VWS V14.01,2013-11-19 23:15:00,
2013-11-19 18:20:00,31.9,21.1,30.18,WSW,247,0.0,0.0,64,0.00,,FEW055,0.00,VWS V14.01,2013-11-19 23:20:00,
2013-11-19 18:25:00,31.9,20.8,30.19,WSW,247,1.0,7.0,63,0.00,,FEW055,0.00,VWS V14.01,2013-11-19 23:25:00,
2013-11-19 18:30:00,31.8,21.0,30.20,WSW,247,0.0,0.0,64,0.00,,FEW055,0.00,VWS V14.01,2013-11-19 23:30:00,
2013-11-19 18:35:00,31.5,20.7,30.20,WSW,247,10.0,10.0,64,0.00,,FEW055,0.00,VWS V14.01,2013-11-19 23:35:00,
2013-11-19 18:40:00,31.3,20.9,30.20,WSW,247,1.0,21.0,65,0.00,,FEW055,0.00,VWS V14.01,2013-11-19 23:40:00,
2013-11-19 18:45:00,31.3,20.9,30.20,WSW,247,8.0,11.0,65,0.00,,FEW055,0.00,VWS V14.01,2013-11-19 23:45:00,
2013-11-19 18:50:00,31.0,20.6,30.19,WSW,247,11.0,22.0,65,0.00,,FEW055,0.00,VWS V14.01,2013-11-19 23:50:00,
2013-11-19 18:55:00,31.0,20.6,30.20,WSW,247,0.0,13.0,65,0.00,,FEW055,0.00,VWS V14.01,2013-11-19 23:55:00,
2013-11-19 19:00:00,30.9,20.5,30.20,WSW,247,8.0,24.0,65,0.00,,FEW055,0.00,VWS V14.01,2013-11-20 00:00:00,
2013-11-19 19:05:00,30.7,20.3,30.21,WSW,247,9.0,9.0,65,0.00,,CLR,0.00,VWS V14.01,2013-11-20 00:05:00,
2013-11-19 19:10:00,30.7,20.3,30.21,WSW,247,0.0,18.0,65,0.00,,CLR,0.00,VWS V14.01,2013-11-20 00:10:00,
2013-11-19 19:15:00,30.7,20.0,30.22,WSW,247,0.0,15.0,64,0.00,,CLR,0.00,VWS V14.01,2013-11-20 00:15:00,
2013-11-19 19:20:00,30.6,20.2,30.22,WSW,247,0.0,0.0,65,0.00,,CLR,0.00,VWS V14.01,2013-11-20 00:20:00,
2013-11-19 19:25:00,30.4,19.7,30.22,WSW,247,8.0,22.0,64,0.00,,CLR,0.00,VWS V14.01,2013-11-20 00:25:00,
2013-11-19 19:30:00,30.3,19.6,30.22,WSW,247,0.0,10.0,64,0.00,,CLR,0.00,VWS V14.01,2013-11-20 00:30:00,
2013-11-19 19:35:00,30.1,19.4,30.23,WSW,247,0.0,13.0,64,0.00,,CLR,0.00,VWS V14.01,2013-11-20 00:35:00,
2013-11-19 19:40:00,30.0,19.3,30.23,WSW,247,8.0,14.0,64,0.00,,CLR,0.00,VWS V14.01,2013-11-20 00:40:00,
2013-11-19 19:45:00,30.0,19.3,30.23,North,9,8.0,24.0,64,0.00,,CLR,0.00,VWS V14.01,2013-11-20 00:45:00,
2013-11-19 19:50:00,30.0,19.3,30.23,North,355,5.0,21.0,64,0.00,,CLR,0.00,VWS V14.01,2013-11-20 00:50:00,
2013-11-19 19:55:00,29.8,19.1,30.23,WSW,250,9.0,14.0,64,0.00,,CLR,0.00,VWS V14.01,2013-11-20 00:55:00,
2013-11-19 20:00:00,29.7,19.4,30.24,WSW,250,0.0,0.0,65,0.00,,CLR,0.00,VWS V14.01,2013-11-20 01:00:00,
2013-11-19 20:05:00,29.5,18.8,30.24,WSW,250,0.0,16.0,64,0.00,,CLR,0.00,VWS V14.01,2013-11-20 01:05:00,
2013-11-19 20:10:00,29.5,18.8,30.25,WSW,250,0.0,5.0,64,0.00,,CLR,0.00,VWS V14.01,2013-11-20 01:10:00,
2013-11-19 20:15:00,29.5,18.8,30.25,WNW,292,4.0,21.0,64,0.00,,CLR,0.00,VWS V14.01,2013-11-20 01:15:00,
2013-11-19 20:20:00,29.5,18.8,30.25,SE,145,0.0,0.0,64,0.00,,CLR,0.00,VWS V14.01,2013-11-20 01:20:00,
2013-11-19 20:25:00,29.4,18.7,30.25,SSE,153,0.0,0.0,64,0.00,,CLR,0.00,VWS V14.01,2013-11-20 01:25:00,
2013-11-19 20:30:00,29.2,18.5,30.26,NNW,337,5.0,5.0,64,0.00,,CLR,0.00,VWS V14.01,2013-11-20 01:30:00,
2013-11-19 20:35:00,29.1,18.8,30.26,SSE,153,8.0,19.0,65,0.00,,CLR,0.00,VWS V14.01,2013-11-20 01:35:00,
2013-11-19 20:40:00,29.1,18.5,30.26,SSE,153,0.0,0.0,64,0.00,,CLR,0.00,VWS V14.01,2013-11-20 01:40:00,
2013-11-19 20:45:00,29.1,18.5,30.26,SSE,153,0.0,8.0,64,0.00,,CLR,0.00,VWS V14.01,2013-11-20 01:45:00,
2013-11-19 20:50:00,28.9,18.3,30.26,SSE,153,0.0,0.0,64,0.00,,CLR,0.00,VWS V14.01,2013-11-20 01:50:00,
2013-11-19 20:55:00,28.9,18.3,30.26,WSW,254,10.0,15.0,64,0.00,,CLR,0.00,VWS V14.01,2013-11-20 01:55:00,
2013-11-19 21:00:00,28.9,18.3,30.26,WSW,254,0.0,0.0,64,0.00,,CLR,0.00,VWS V14.01,2013-11-20 02:00:00,
2013-11-19 21:06:00,28.8,18.2,30.27,WSW,254,0.0,0.0,64,0.00,,CLR,0.00,VWS V14.01,2013-11-20 02:06:00,
2013-11-19 21:11:00,28.8,18.5,30.27,WSW,254,0.0,1.0,65,0.00,,CLR,0.00,VWS V14.01,2013-11-20 02:11:00,
2013-11-19 21:16:00,28.7,18.4,30.27,NNE,30,0.0,2.0,65,0.00,,CLR,0.00,VWS V14.01,2013-11-20 02:16:00,
2013-11-19 21:21:00,28.8,18.2,30.27,East,91,0.0,0.0,64,0.00,,CLR,0.00,VWS V14.01,2013-11-20 02:21:00,
2013-11-19 21:26:00,28.8,18.5,30.28,NW,325,2.0,21.0,65,0.00,,CLR,0.00,VWS V14.01,2013-11-20 02:26:00,
2013-11-19 21:31:00,28.8,18.2,30.27,West,263,0.0,5.0,64,0.00,,CLR,0.00,VWS V14.01,2013-11-20 02:31:00,
2013-11-19 21:36:00,28.8,18.2,30.28,WSW,254,0.0,12.0,64,0.00,,CLR,0.00,VWS V14.01,2013-11-20 02:36:00,
2013-11-19 21:41:00,28.7,18.1,30.28,WSW,254,0.0,0.0,64,0.00,,CLR,0.00,VWS V14.01,2013-11-20 02:41:00,
2013-11-19 21:46:00,28.7,18.4,30.28,WSW,254,0.0,0.0,65,0.00,,CLR,0.00,VWS V14.01,2013-11-20 02:46:00,
2013-11-19 21:51:00,28.5,18.2,30.28,WSW,254,0.0,0.0,65,0.00,,CLR,0.00,VWS V14.01,2013-11-20 02:51:00,
2013-11-19 21:56:00,28.4,17.8,30.28,WSW,254,0.0,0.0,64,0.00,,CLR,0.00,VWS V14.01,2013-11-20 02:56:00,
2013-11-19 22:01:00,28.4,18.1,30.28,WSW,254,0.0,0.0,65,0.00,,CLR,0.00,VWS V14.01,2013-11-20 03:01:00,
2013-11-19 22:06:00,28.4,17.8,30.28,WSW,254,0.0,0.0,64,0.00,,CLR,0.00,VWS V14.01,2013-11-20 03:06:00,
2013-11-19 22:11:00,28.2,18.0,30.29,WSW,254,0.0,11.0,65,0.00,,CLR,0.00,VWS V14.01,2013-11-20 03:11:00,
2013-11-19 22:16:00,28.2,18.0,30.29,WSW,254,0.0,0.0,65,0.00,,CLR,0.00,VWS V14.01,2013-11-20 03:16:00,
2013-11-19 22:21:00,28.1,17.9,30.29,WSW,254,0.0,10.0,65,0.00,,CLR,0.00,VWS V14.01,2013-11-20 03:21:00,
2013-11-19 22:26:00,27.9,17.7,30.29,WSW,254,7.0,15.0,65,0.00,,CLR,0.00,VWS V14.01,2013-11-20 03:26:00,
2013-11-19 22:31:00,27.9,17.7,30.30,WSW,254,0.0,11.0,65,0.00,,CLR,0.00,VWS V14.01,2013-11-20 03:31:00,
2013-11-19 22:36:00,27.9,17.7,30.30,WSW,254,0.0,15.0,65,0.00,,CLR,0.00,VWS V14.01,2013-11-20 03:36:00,
2013-11-19 22:41:00,27.9,17.7,30.30,WSW,254,0.0,10.0,65,0.00,,CLR,0.00,VWS V14.01,2013-11-20 03:41:00,
2013-11-19 22:46:00,27.9,17.7,30.30,WSW,254,0.0,5.0,65,0.00,,CLR,0.00,VWS V14.01,2013-11-20 03:46:00,
2013-11-19 22:51:00,27.8,17.6,30.30,WSW,254,0.0,0.0,65,0.00,,CLR,0.00,VWS V14.01,2013-11-20 03:51:00,
2013-11-19 22:56:00,27.8,17.6,30.30,WSW,254,0.0,0.0,65,0.00,,CLR,0.00,VWS V14.01,2013-11-20 03:56:00,
2013-11-19 23:01:00,27.6,17.4,30.31,WSW,254,0.0,0.0,65,0.00,,CLR,0.00,VWS V14.01,2013-11-20 04:01:00,
2013-11-19 23:06:00,27.6,17.4,30.31,WSW,254,0.0,2.0,65,0.00,,CLR,0.00,VWS V14.01,2013-11-20 04:06:00,
2013-11-19 23:11:00,27.6,17.7,30.31,WSW,254,0.0,15.0,66,0.00,,CLR,0.00,VWS V14.01,2013-11-20 04:11:00,
2013-11-19 23:16:00,27.6,17.7,30.31,WSW,254,18.0,19.0,66,0.00,,CLR,0.00,VWS V14.01,2013-11-20 04:16:00,
2013-11-19 23:21:00,27.8,17.6,30.31,WSW,254,0.0,13.0,65,0.00,,CLR,0.00,VWS V14.01,2013-11-20 04:21:00,
2013-11-19 23:26:00,27.8,17.6,30.31,WSW,254,0.0,11.0,65,0.00,,CLR,0.00,VWS V14.01,2013-11-20 04:26:00,
2013-11-19 23:31:00,27.8,17.6,30.32,NW,305,8.0,10.0,65,0.00,,CLR,0.00,VWS V14.01,2013-11-20 04:31:00,
2013-11-19 23:36:00,27.8,17.2,30.32,NW,317,0.0,11.0,64,0.00,,CLR,0.00,VWS V14.01,2013-11-20 04:36:00,
2013-11-19 23:41:00,27.8,17.2,30.32,North,360,0.0,7.0,64,0.00,,CLR,0.00,VWS V14.01,2013-11-20 04:41:00,
2013-11-19 23:46:00,27.8,17.2,30.32,WNW,290,12.0,19.0,64,0.00,,CLR,0.00,VWS V14.01,2013-11-20 04:46:00,
2013-11-19 23:51:00,27.8,17.2,30.32,WNW,303,0.0,8.0,64,0.00,,CLR,0.00,VWS V14.01,2013-11-20 04:51:00,
2013-11-19 23:56:00,27.8,17.2,30.32,NW,323,0.0,14.0,64,0.00,,CLR,0.00,VWS V14.01,2013-11-20 04:56:00,